sensor_id;sensor_type;location;lat;lon;timestamp;P1;durP1;ratioP1;P2;durP2;ratioP2
77701;SDS011;66868;42.708;23.404;2023-06-14T00:00:51;18.17;;;10.35;;
77701;SDS011;66868;42.708;23.404;2023-06-14T00:03:17;13.18;;;9.70;;
77701;SDS011;66868;42.708;23.404;2023-06-14T00:05:47;15.60;;;9.95;;
77701;SDS011;66868;42.708;23.404;2023-06-14T00:08:13;12.30;;;9.35;;
77701;SDS011;66868;42.708;23.404;2023-06-14T00:10:40;16.33;;;10.18;;
77701;SDS011;66868;42.708;23.404;2023-06-14T00:13:07;12.43;;;10.20;;
77701;SDS011;66868;42.708;23.404;2023-06-14T00:15:34;16.45;;;10.55;;
77701;SDS011;66868;42.708;23.404;2023-06-14T00:18:00;15.02;;;9.50;;
77701;SDS011;66868;42.708;23.404;2023-06-14T00:20:26;15.82;;;10.20;;
77701;SDS011;66868;42.708;23.404;2023-06-14T00:22:53;16.20;;;10.77;;
77701;SDS011;66868;42.708;23.404;2023-06-14T00:25:20;19.00;;;10.25;;
77701;SDS011;66868;42.708;23.404;2023-06-14T00:27:46;17.50;;;9.55;;
77701;SDS011;66868;42.708;23.404;2023-06-14T00:30:12;10.15;;;9.07;;
77701;SDS011;66868;42.708;23.404;2023-06-14T00:32:38;14.80;;;9.35;;
77701;SDS011;66868;42.708;23.404;2023-06-14T00:35:03;13.32;;;8.93;;
77701;SDS011;66868;42.708;23.404;2023-06-14T00:37:29;17.00;;;9.82;;
77701;SDS011;66868;42.708;23.404;2023-06-14T00:39:54;21.85;;;9.77;;
77701;SDS011;66868;42.708;23.404;2023-06-14T00:42:23;9.35;;;8.45;;
77701;SDS011;66868;42.708;23.404;2023-06-14T00:44:50;18.92;;;8.30;;
77701;SDS011;66868;42.708;23.404;2023-06-14T00:47:15;11.05;;;6.97;;
77701;SDS011;66868;42.708;23.404;2023-06-14T00:49:41;6.55;;;5.95;;
77701;SDS011;66868;42.708;23.404;2023-06-14T00:52:06;12.02;;;7.10;;
77701;SDS011;66868;42.708;23.404;2023-06-14T00:54:32;7.05;;;6.13;;
77701;SDS011;66868;42.708;23.404;2023-06-14T00:56:58;6.68;;;5.82;;
77701;SDS011;66868;42.708;23.404;2023-06-14T00:59:23;6.97;;;6.38;;
77701;SDS011;66868;42.708;23.404;2023-06-14T01:01:48;6.30;;;5.70;;
77701;SDS011;66868;42.708;23.404;2023-06-14T01:04:14;8.15;;;6.07;;
77701;SDS011;66868;42.708;23.404;2023-06-14T01:06:42;8.55;;;6.13;;
77701;SDS011;66868;42.708;23.404;2023-06-14T01:09:30;9.05;;;6.65;;
77701;SDS011;66868;42.708;23.404;2023-06-14T01:12:22;8.85;;;7.40;;
77701;SDS011;66868;42.708;23.404;2023-06-14T01:14:54;8.30;;;6.78;;
77701;SDS011;66868;42.708;23.404;2023-06-14T01:17:22;6.88;;;6.25;;
77701;SDS011;66868;42.708;23.404;2023-06-14T01:19:48;8.30;;;6.68;;
77701;SDS011;66868;42.708;23.404;2023-06-14T01:22:14;7.72;;;6.28;;
77701;SDS011;66868;42.708;23.404;2023-06-14T01:24:39;12.63;;;5.75;;
77701;SDS011;66868;42.708;23.404;2023-06-14T01:27:09;10.27;;;7.00;;
77701;SDS011;66868;42.708;23.404;2023-06-14T01:29:37;6.82;;;5.97;;
77701;SDS011;66868;42.708;23.404;2023-06-14T01:32:03;13.52;;;6.40;;
77701;SDS011;66868;42.708;23.404;2023-06-14T01:34:30;11.38;;;6.10;;
77701;SDS011;66868;42.708;23.404;2023-06-14T01:36:56;15.48;;;7.10;;
77701;SDS011;66868;42.708;23.404;2023-06-14T01:39:23;11.93;;;6.55;;
77701;SDS011;66868;42.708;23.404;2023-06-14T01:41:49;6.28;;;5.65;;
77701;SDS011;66868;42.708;23.404;2023-06-14T01:44:16;7.20;;;6.30;;
77701;SDS011;66868;42.708;23.404;2023-06-14T01:46:43;7.82;;;6.43;;
77701;SDS011;66868;42.708;23.404;2023-06-14T01:49:10;9.68;;;5.95;;
77701;SDS011;66868;42.708;23.404;2023-06-14T01:51:36;7.80;;;7.10;;
77701;SDS011;66868;42.708;23.404;2023-06-14T01:54:01;10.82;;;7.00;;
77701;SDS011;66868;42.708;23.404;2023-06-14T01:56:26;7.05;;;6.45;;
77701;SDS011;66868;42.708;23.404;2023-06-14T01:58:52;8.10;;;7.03;;
77701;SDS011;66868;42.708;23.404;2023-06-14T02:01:18;7.97;;;6.78;;
77701;SDS011;66868;42.708;23.404;2023-06-14T02:03:46;12.18;;;7.43;;
77701;SDS011;66868;42.708;23.404;2023-06-14T02:06:12;9.85;;;7.57;;
77701;SDS011;66868;42.708;23.404;2023-06-14T02:08:37;7.80;;;6.90;;
77701;SDS011;66868;42.708;23.404;2023-06-14T02:11:02;7.63;;;7.03;;
77701;SDS011;66868;42.708;23.404;2023-06-14T02:13:28;8.35;;;6.97;;
77701;SDS011;66868;42.708;23.404;2023-06-14T02:15:53;8.35;;;7.68;;
77701;SDS011;66868;42.708;23.404;2023-06-14T02:18:19;8.00;;;6.63;;
77701;SDS011;66868;42.708;23.404;2023-06-14T02:20:46;10.77;;;6.57;;
77701;SDS011;66868;42.708;23.404;2023-06-14T02:23:12;6.57;;;5.97;;
77701;SDS011;66868;42.708;23.404;2023-06-14T02:25:37;6.55;;;6.05;;
77701;SDS011;66868;42.708;23.404;2023-06-14T02:28:04;6.90;;;6.20;;
77701;SDS011;66868;42.708;23.404;2023-06-14T02:30:30;9.63;;;6.20;;
77701;SDS011;66868;42.708;23.404;2023-06-14T02:32:56;7.72;;;6.28;;
77701;SDS011;66868;42.708;23.404;2023-06-14T02:35:21;10.80;;;6.00;;
77701;SDS011;66868;42.708;23.404;2023-06-14T02:37:49;8.07;;;6.25;;
77701;SDS011;66868;42.708;23.404;2023-06-14T02:40:16;13.85;;;6.20;;
77701;SDS011;66868;42.708;23.404;2023-06-14T02:42:41;7.20;;;6.50;;
77701;SDS011;66868;42.708;23.404;2023-06-14T02:45:07;10.88;;;6.90;;
77701;SDS011;66868;42.708;23.404;2023-06-14T02:47:33;8.13;;;7.07;;
77701;SDS011;66868;42.708;23.404;2023-06-14T02:49:58;6.97;;;6.38;;
77701;SDS011;66868;42.708;23.404;2023-06-14T02:52:24;7.88;;;6.20;;
77701;SDS011;66868;42.708;23.404;2023-06-14T02:54:50;6.97;;;6.28;;
77701;SDS011;66868;42.708;23.404;2023-06-14T02:57:15;11.50;;;7.43;;
77701;SDS011;66868;42.708;23.404;2023-06-14T02:59:41;7.43;;;6.82;;
77701;SDS011;66868;42.708;23.404;2023-06-14T03:02:06;10.32;;;7.75;;
77701;SDS011;66868;42.708;23.404;2023-06-14T03:04:32;12.23;;;7.68;;
77701;SDS011;66868;42.708;23.404;2023-06-14T03:07:02;7.65;;;6.80;;
77701;SDS011;66868;42.708;23.404;2023-06-14T03:09:34;8.80;;;7.57;;
77701;SDS011;66868;42.708;23.404;2023-06-14T03:12:00;8.63;;;7.80;;
77701;SDS011;66868;42.708;23.404;2023-06-14T03:14:26;9.45;;;7.57;;
77701;SDS011;66868;42.708;23.404;2023-06-14T03:16:51;9.13;;;7.65;;
77701;SDS011;66868;42.708;23.404;2023-06-14T03:19:21;15.60;;;8.20;;
77701;SDS011;66868;42.708;23.404;2023-06-14T03:21:50;14.23;;;8.85;;
77701;SDS011;66868;42.708;23.404;2023-06-14T03:24:16;13.15;;;7.72;;
77701;SDS011;66868;42.708;23.404;2023-06-14T03:26:42;10.52;;;7.25;;
77701;SDS011;66868;42.708;23.404;2023-06-14T03:29:08;13.32;;;7.28;;
77701;SDS011;66868;42.708;23.404;2023-06-14T03:31:34;8.30;;;7.47;;
77701;SDS011;66868;42.708;23.404;2023-06-14T03:34:00;7.93;;;7.22;;
77701;SDS011;66868;42.708;23.404;2023-06-14T03:36:25;10.43;;;6.95;;
77701;SDS011;66868;42.708;23.404;2023-06-14T03:38:51;9.15;;;6.57;;
77701;SDS011;66868;42.708;23.404;2023-06-14T03:41:16;11.32;;;6.72;;
77701;SDS011;66868;42.708;23.404;2023-06-14T03:43:42;6.93;;;6.35;;
77701;SDS011;66868;42.708;23.404;2023-06-14T03:46:07;8.98;;;6.63;;
77701;SDS011;66868;42.708;23.404;2023-06-14T03:48:32;12.60;;;6.53;;
77701;SDS011;66868;42.708;23.404;2023-06-14T03:50:58;7.65;;;6.47;;
77701;SDS011;66868;42.708;23.404;2023-06-14T03:53:23;8.10;;;6.97;;
77701;SDS011;66868;42.708;23.404;2023-06-14T03:55:49;7.15;;;6.55;;
77701;SDS011;66868;42.708;23.404;2023-06-14T03:58:17;8.77;;;7.07;;
77701;SDS011;66868;42.708;23.404;2023-06-14T04:00:42;8.88;;;7.97;;
77701;SDS011;66868;42.708;23.404;2023-06-14T04:03:08;11.60;;;7.18;;
77701;SDS011;66868;42.708;23.404;2023-06-14T04:05:33;9.43;;;6.70;;
77701;SDS011;66868;42.708;23.404;2023-06-14T04:07:59;8.20;;;6.88;;
77701;SDS011;66868;42.708;23.404;2023-06-14T04:10:25;9.40;;;7.03;;
77701;SDS011;66868;42.708;23.404;2023-06-14T04:12:51;8.55;;;6.70;;
77701;SDS011;66868;42.708;23.404;2023-06-14T04:15:17;8.15;;;6.68;;
77701;SDS011;66868;42.708;23.404;2023-06-14T04:17:43;11.25;;;6.50;;
77701;SDS011;66868;42.708;23.404;2023-06-14T04:20:08;8.98;;;6.30;;
77701;SDS011;66868;42.708;23.404;2023-06-14T04:22:35;8.55;;;6.85;;
77701;SDS011;66868;42.708;23.404;2023-06-14T04:25:01;6.93;;;6.43;;
77701;SDS011;66868;42.708;23.404;2023-06-14T04:27:27;7.68;;;6.97;;
77701;SDS011;66868;42.708;23.404;2023-06-14T04:29:53;7.60;;;6.90;;
77701;SDS011;66868;42.708;23.404;2023-06-14T04:32:24;7.85;;;7.05;;
77701;SDS011;66868;42.708;23.404;2023-06-14T04:34:54;11.93;;;7.60;;
77701;SDS011;66868;42.708;23.404;2023-06-14T04:37:21;10.48;;;6.43;;
77701;SDS011;66868;42.708;23.404;2023-06-14T04:39:49;7.60;;;6.90;;
77701;SDS011;66868;42.708;23.404;2023-06-14T04:42:15;8.80;;;6.68;;
77701;SDS011;66868;42.708;23.404;2023-06-14T04:44:41;11.80;;;7.47;;
77701;SDS011;66868;42.708;23.404;2023-06-14T04:47:10;9.65;;;6.70;;
77701;SDS011;66868;42.708;23.404;2023-06-14T04:49:37;11.52;;;8.68;;
77701;SDS011;66868;42.708;23.404;2023-06-14T04:52:03;8.85;;;8.05;;
77701;SDS011;66868;42.708;23.404;2023-06-14T04:54:29;9.32;;;8.40;;
77701;SDS011;66868;42.708;23.404;2023-06-14T04:56:56;11.60;;;8.75;;
77701;SDS011;66868;42.708;23.404;2023-06-14T04:59:22;8.63;;;7.82;;
77701;SDS011;66868;42.708;23.404;2023-06-14T05:01:50;8.88;;;7.93;;
77701;SDS011;66868;42.708;23.404;2023-06-14T05:04:16;10.20;;;7.82;;
77701;SDS011;66868;42.708;23.404;2023-06-14T05:06:44;9.25;;;8.25;;
77701;SDS011;66868;42.708;23.404;2023-06-14T05:09:10;9.73;;;8.10;;
77701;SDS011;66868;42.708;23.404;2023-06-14T05:11:39;9.57;;;7.28;;
77701;SDS011;66868;42.708;23.404;2023-06-14T05:14:09;12.68;;;7.90;;
77701;SDS011;66868;42.708;23.404;2023-06-14T05:16:37;8.27;;;7.40;;
77701;SDS011;66868;42.708;23.404;2023-06-14T05:19:04;16.00;;;8.70;;
77701;SDS011;66868;42.708;23.404;2023-06-14T05:21:29;10.38;;;8.55;;
77701;SDS011;66868;42.708;23.404;2023-06-14T05:23:55;14.27;;;8.38;;
77701;SDS011;66868;42.708;23.404;2023-06-14T05:26:21;10.25;;;8.13;;
77701;SDS011;66868;42.708;23.404;2023-06-14T05:28:48;10.60;;;8.32;;
77701;SDS011;66868;42.708;23.404;2023-06-14T05:31:14;11.65;;;8.73;;
77701;SDS011;66868;42.708;23.404;2023-06-14T05:33:40;8.32;;;7.63;;
77701;SDS011;66868;42.708;23.404;2023-06-14T05:36:05;8.70;;;7.90;;
77701;SDS011;66868;42.708;23.404;2023-06-14T05:38:31;10.85;;;7.80;;
77701;SDS011;66868;42.708;23.404;2023-06-14T05:40:56;8.23;;;7.47;;
77701;SDS011;66868;42.708;23.404;2023-06-14T05:43:21;10.65;;;7.30;;
77701;SDS011;66868;42.708;23.404;2023-06-14T05:45:47;8.45;;;7.75;;
77701;SDS011;66868;42.708;23.404;2023-06-14T05:48:13;13.85;;;7.82;;
77701;SDS011;66868;42.708;23.404;2023-06-14T05:50:38;8.10;;;7.38;;
77701;SDS011;66868;42.708;23.404;2023-06-14T05:53:03;9.20;;;7.68;;
77701;SDS011;66868;42.708;23.404;2023-06-14T05:55:29;8.50;;;7.53;;
77701;SDS011;66868;42.708;23.404;2023-06-14T05:57:54;9.02;;;8.13;;
77701;SDS011;66868;42.708;23.404;2023-06-14T06:00:20;10.15;;;8.95;;
77701;SDS011;66868;42.708;23.404;2023-06-14T06:02:45;9.13;;;8.23;;
77701;SDS011;66868;42.708;23.404;2023-06-14T06:05:12;13.60;;;9.88;;
77701;SDS011;66868;42.708;23.404;2023-06-14T06:07:38;12.93;;;9.38;;
77701;SDS011;66868;42.708;23.404;2023-06-14T06:10:10;10.20;;;9.25;;
77701;SDS011;66868;42.708;23.404;2023-06-14T06:12:36;11.32;;;10.23;;
77701;SDS011;66868;42.708;23.404;2023-06-14T06:15:02;11.60;;;9.38;;
77701;SDS011;66868;42.708;23.404;2023-06-14T06:17:28;11.23;;;10.07;;
77701;SDS011;66868;42.708;23.404;2023-06-14T06:19:53;11.27;;;10.15;;
77701;SDS011;66868;42.708;23.404;2023-06-14T06:22:19;12.25;;;10.40;;
77701;SDS011;66868;42.708;23.404;2023-06-14T06:24:44;15.00;;;9.38;;
77701;SDS011;66868;42.708;23.404;2023-06-14T06:27:10;11.90;;;9.73;;
77701;SDS011;66868;42.708;23.404;2023-06-14T06:29:37;13.23;;;10.40;;
77701;SDS011;66868;42.708;23.404;2023-06-14T06:32:03;10.02;;;9.02;;
77701;SDS011;66868;42.708;23.404;2023-06-14T06:34:28;10.45;;;9.35;;
77701;SDS011;66868;42.708;23.404;2023-06-14T06:36:54;12.15;;;10.13;;
77701;SDS011;66868;42.708;23.404;2023-06-14T06:39:20;10.65;;;9.50;;
77701;SDS011;66868;42.708;23.404;2023-06-14T06:41:45;11.85;;;10.40;;
77701;SDS011;66868;42.708;23.404;2023-06-14T06:44:11;14.25;;;10.55;;
77701;SDS011;66868;42.708;23.404;2023-06-14T06:46:37;17.45;;;11.32;;
77701;SDS011;66868;42.708;23.404;2023-06-14T06:49:05;13.75;;;11.68;;
77701;SDS011;66868;42.708;23.404;2023-06-14T06:51:31;15.07;;;12.80;;
77701;SDS011;66868;42.708;23.404;2023-06-14T06:53:56;14.18;;;12.48;;
77701;SDS011;66868;42.708;23.404;2023-06-14T06:56:22;16.27;;;11.77;;
77701;SDS011;66868;42.708;23.404;2023-06-14T06:58:51;14.57;;;12.50;;
77701;SDS011;66868;42.708;23.404;2023-06-14T07:01:17;13.82;;;12.18;;
77701;SDS011;66868;42.708;23.404;2023-06-14T07:03:44;15.65;;;12.10;;
77701;SDS011;66868;42.708;23.404;2023-06-14T07:06:10;19.08;;;12.35;;
77701;SDS011;66868;42.708;23.404;2023-06-14T07:08:36;16.48;;;12.57;;
77701;SDS011;66868;42.708;23.404;2023-06-14T07:11:03;15.68;;;12.30;;
77701;SDS011;66868;42.708;23.404;2023-06-14T07:13:29;15.35;;;12.43;;
77701;SDS011;66868;42.708;23.404;2023-06-14T07:15:56;16.05;;;12.27;;
77701;SDS011;66868;42.708;23.404;2023-06-14T07:18:23;17.67;;;12.35;;
77701;SDS011;66868;42.708;23.404;2023-06-14T07:20:49;20.77;;;12.80;;
77701;SDS011;66868;42.708;23.404;2023-06-14T07:23:15;19.13;;;14.13;;
77701;SDS011;66868;42.708;23.404;2023-06-14T07:25:40;17.15;;;12.85;;
77701;SDS011;66868;42.708;23.404;2023-06-14T07:28:05;14.77;;;13.15;;
77701;SDS011;66868;42.708;23.404;2023-06-14T07:30:32;18.95;;;13.00;;
77701;SDS011;66868;42.708;23.404;2023-06-14T07:32:57;16.27;;;13.15;;
77701;SDS011;66868;42.708;23.404;2023-06-14T07:35:22;15.80;;;12.43;;
77701;SDS011;66868;42.708;23.404;2023-06-14T07:37:48;18.83;;;13.43;;
77701;SDS011;66868;42.708;23.404;2023-06-14T07:40:14;14.48;;;11.82;;
77701;SDS011;66868;42.708;23.404;2023-06-14T07:42:40;16.80;;;13.43;;
77701;SDS011;66868;42.708;23.404;2023-06-14T07:45:06;18.83;;;13.65;;
77701;SDS011;66868;42.708;23.404;2023-06-14T07:47:32;19.65;;;13.80;;
77701;SDS011;66868;42.708;23.404;2023-06-14T07:49:57;18.83;;;14.13;;
77701;SDS011;66868;42.708;23.404;2023-06-14T07:52:23;20.27;;;13.82;;
77701;SDS011;66868;42.708;23.404;2023-06-14T07:54:48;17.48;;;13.13;;
77701;SDS011;66868;42.708;23.404;2023-06-14T07:57:13;14.00;;;12.65;;
77701;SDS011;66868;42.708;23.404;2023-06-14T07:59:39;16.15;;;12.38;;
77701;SDS011;66868;42.708;23.404;2023-06-14T08:02:04;14.43;;;12.93;;
77701;SDS011;66868;42.708;23.404;2023-06-14T08:04:30;12.60;;;11.30;;
77701;SDS011;66868;42.708;23.404;2023-06-14T08:06:56;19.23;;;12.13;;
77701;SDS011;66868;42.708;23.404;2023-06-14T08:09:22;14.90;;;12.73;;
77701;SDS011;66868;42.708;23.404;2023-06-14T08:11:48;15.65;;;12.90;;
77701;SDS011;66868;42.708;23.404;2023-06-14T08:14:13;17.88;;;12.57;;
77701;SDS011;66868;42.708;23.404;2023-06-14T08:16:38;13.80;;;12.38;;
77701;SDS011;66868;42.708;23.404;2023-06-14T08:19:04;15.82;;;12.07;;
77701;SDS011;66868;42.708;23.404;2023-06-14T08:21:29;18.10;;;11.25;;
77701;SDS011;66868;42.708;23.404;2023-06-14T08:23:55;14.00;;;10.93;;
77701;SDS011;66868;42.708;23.404;2023-06-14T08:26:20;12.23;;;10.95;;
77701;SDS011;66868;42.708;23.404;2023-06-14T08:28:46;11.35;;;10.20;;
77701;SDS011;66868;42.708;23.404;2023-06-14T08:31:12;12.15;;;10.88;;
77701;SDS011;66868;42.708;23.404;2023-06-14T08:33:37;13.60;;;11.13;;
77701;SDS011;66868;42.708;23.404;2023-06-14T08:36:04;10.38;;;9.10;;
77701;SDS011;66868;42.708;23.404;2023-06-14T08:38:29;15.60;;;10.52;;
77701;SDS011;66868;42.708;23.404;2023-06-14T08:40:56;11.38;;;10.20;;
77701;SDS011;66868;42.708;23.404;2023-06-14T08:43:22;11.88;;;9.18;;
77701;SDS011;66868;42.708;23.404;2023-06-14T08:45:48;9.45;;;8.65;;
77701;SDS011;66868;42.708;23.404;2023-06-14T08:48:18;8.93;;;8.02;;
77701;SDS011;66868;42.708;23.404;2023-06-14T08:50:45;9.55;;;8.75;;
77701;SDS011;66868;42.708;23.404;2023-06-14T08:53:13;9.52;;;8.30;;
77701;SDS011;66868;42.708;23.404;2023-06-14T08:55:45;12.73;;;6.68;;
77701;SDS011;66868;42.708;23.404;2023-06-14T08:58:12;7.75;;;7.15;;
77701;SDS011;66868;42.708;23.404;2023-06-14T09:00:39;11.10;;;8.02;;
77701;SDS011;66868;42.708;23.404;2023-06-14T09:03:06;9.30;;;8.35;;
77701;SDS011;66868;42.708;23.404;2023-06-14T09:05:38;8.95;;;8.07;;
77701;SDS011;66868;42.708;23.404;2023-06-14T09:08:04;10.27;;;9.23;;
77701;SDS011;66868;42.708;23.404;2023-06-14T09:10:30;13.70;;;8.77;;
77701;SDS011;66868;42.708;23.404;2023-06-14T09:13:00;14.05;;;8.82;;
77701;SDS011;66868;42.708;23.404;2023-06-14T09:15:26;13.63;;;9.50;;
77701;SDS011;66868;42.708;23.404;2023-06-14T09:17:51;9.32;;;8.43;;
77701;SDS011;66868;42.708;23.404;2023-06-14T09:20:18;8.93;;;8.02;;
77701;SDS011;66868;42.708;23.404;2023-06-14T09:22:44;8.10;;;7.47;;
77701;SDS011;66868;42.708;23.404;2023-06-14T09:25:10;8.77;;;7.97;;
77701;SDS011;66868;42.708;23.404;2023-06-14T09:27:37;8.27;;;7.65;;
77701;SDS011;66868;42.708;23.404;2023-06-14T09:30:05;10.30;;;7.32;;
77701;SDS011;66868;42.708;23.404;2023-06-14T09:32:35;11.50;;;7.55;;
77701;SDS011;66868;42.708;23.404;2023-06-14T09:35:02;8.45;;;7.28;;
77701;SDS011;66868;42.708;23.404;2023-06-14T09:37:29;8.27;;;7.60;;
77701;SDS011;66868;42.708;23.404;2023-06-14T09:39:56;7.47;;;6.88;;
77701;SDS011;66868;42.708;23.404;2023-06-14T09:42:22;8.00;;;7.38;;
77701;SDS011;66868;42.708;23.404;2023-06-14T09:44:51;7.43;;;6.82;;
77701;SDS011;66868;42.708;23.404;2023-06-14T09:47:17;7.95;;;7.32;;
77701;SDS011;66868;42.708;23.404;2023-06-14T09:49:42;9.93;;;7.47;;
77701;SDS011;66868;42.708;23.404;2023-06-14T09:52:13;7.82;;;6.95;;
77701;SDS011;66868;42.708;23.404;2023-06-14T09:54:43;8.93;;;8.07;;
77701;SDS011;66868;42.708;23.404;2023-06-14T09:57:13;27.33;;;22.13;;
77701;SDS011;66868;42.708;23.404;2023-06-14T09:59:44;9.65;;;8.63;;
77701;SDS011;66868;42.708;23.404;2023-06-14T10:05:15;7.68;;;7.07;;
77701;SDS011;66868;42.708;23.404;2023-06-14T10:07:48;7.95;;;7.28;;
77701;SDS011;66868;42.708;23.404;2023-06-14T10:10:15;9.18;;;7.70;;
77701;SDS011;66868;42.708;23.404;2023-06-14T10:12:41;8.25;;;7.55;;
77701;SDS011;66868;42.708;23.404;2023-06-14T10:15:10;8.07;;;6.95;;
77701;SDS011;66868;42.708;23.404;2023-06-14T10:17:44;9.60;;;7.43;;
77701;SDS011;66868;42.708;23.404;2023-06-14T10:20:17;10.13;;;9.10;;
77701;SDS011;66868;42.708;23.404;2023-06-14T10:22:51;9.90;;;9.00;;
77701;SDS011;66868;42.708;23.404;2023-06-14T10:25:38;9.35;;;8.55;;
77701;SDS011;66868;42.708;23.404;2023-06-14T10:30:38;7.65;;;6.93;;
77701;SDS011;66868;42.708;23.404;2023-06-14T10:33:06;7.93;;;7.32;;
77701;SDS011;66868;42.708;23.404;2023-06-14T10:35:32;8.05;;;6.85;;
77701;SDS011;66868;42.708;23.404;2023-06-14T10:38:08;7.75;;;6.88;;
77701;SDS011;66868;42.708;23.404;2023-06-14T10:40:34;9.43;;;7.95;;
77701;SDS011;66868;42.708;23.404;2023-06-14T10:43:01;8.43;;;7.45;;
77701;SDS011;66868;42.708;23.404;2023-06-14T10:48:42;6.55;;;6.15;;
77701;SDS011;66868;42.708;23.404;2023-06-14T10:51:18;9.57;;;8.45;;
77701;SDS011;66868;42.708;23.404;2023-06-14T10:53:48;7.07;;;6.57;;
77701;SDS011;66868;42.708;23.404;2023-06-14T10:56:27;7.60;;;6.70;;
77701;SDS011;66868;42.708;23.404;2023-06-14T10:58:54;7.47;;;6.97;;
77701;SDS011;66868;42.708;23.404;2023-06-14T11:01:25;7.60;;;6.97;;
77701;SDS011;66868;42.708;23.404;2023-06-14T11:04:00;7.40;;;6.55;;
77701;SDS011;66868;42.708;23.404;2023-06-14T11:06:45;7.38;;;6.88;;
77701;SDS011;66868;42.708;23.404;2023-06-14T11:11:57;7.53;;;6.90;;
77701;SDS011;66868;42.708;23.404;2023-06-14T11:14:24;7.75;;;7.25;;
77701;SDS011;66868;42.708;23.404;2023-06-14T11:16:50;11.88;;;9.15;;
77701;SDS011;66868;42.708;23.404;2023-06-14T11:19:16;8.38;;;7.72;;
77701;SDS011;66868;42.708;23.404;2023-06-14T11:21:42;7.40;;;6.70;;
77701;SDS011;66868;42.708;23.404;2023-06-14T11:24:11;7.38;;;6.68;;
77701;SDS011;66868;42.708;23.404;2023-06-14T11:26:37;7.00;;;6.55;;
77701;SDS011;66868;42.708;23.404;2023-06-14T11:29:03;6.32;;;5.93;;
77701;SDS011;66868;42.708;23.404;2023-06-14T11:31:29;6.88;;;6.38;;
77701;SDS011;66868;42.708;23.404;2023-06-14T11:33:58;7.07;;;6.47;;
77701;SDS011;66868;42.708;23.404;2023-06-14T11:36:28;6.82;;;6.32;;
77701;SDS011;66868;42.708;23.404;2023-06-14T11:39:01;6.50;;;6.00;;
77701;SDS011;66868;42.708;23.404;2023-06-14T11:41:41;5.90;;;5.57;;
77701;SDS011;66868;42.708;23.404;2023-06-14T11:44:08;6.70;;;6.03;;
77701;SDS011;66868;42.708;23.404;2023-06-14T11:46:34;5.68;;;5.28;;
77701;SDS011;66868;42.708;23.404;2023-06-14T11:49:01;6.22;;;5.55;;
77701;SDS011;66868;42.708;23.404;2023-06-14T11:51:32;6.45;;;6.05;;
77701;SDS011;66868;42.708;23.404;2023-06-14T11:53:59;6.28;;;5.72;;
77701;SDS011;66868;42.708;23.404;2023-06-14T11:56:25;6.25;;;5.93;;
77701;SDS011;66868;42.708;23.404;2023-06-14T11:58:52;5.40;;;5.10;;
77701;SDS011;66868;42.708;23.404;2023-06-14T12:01:17;5.90;;;5.50;;
77701;SDS011;66868;42.708;23.404;2023-06-14T12:03:50;5.60;;;5.28;;
77701;SDS011;66868;42.708;23.404;2023-06-14T12:06:16;5.78;;;5.25;;
77701;SDS011;66868;42.708;23.404;2023-06-14T12:08:50;5.32;;;4.78;;
77701;SDS011;66868;42.708;23.404;2023-06-14T12:11:15;5.65;;;5.35;;
77701;SDS011;66868;42.708;23.404;2023-06-14T12:13:42;7.75;;;5.78;;
77701;SDS011;66868;42.708;23.404;2023-06-14T12:16:08;4.93;;;4.72;;
77701;SDS011;66868;42.708;23.404;2023-06-14T12:18:35;5.80;;;5.07;;
77701;SDS011;66868;42.708;23.404;2023-06-14T12:21:05;7.63;;;6.43;;
77701;SDS011;66868;42.708;23.404;2023-06-14T12:26:23;5.15;;;4.72;;
77701;SDS011;66868;42.708;23.404;2023-06-14T12:28:51;5.10;;;4.70;;
77701;SDS011;66868;42.708;23.404;2023-06-14T12:31:16;5.38;;;4.90;;
77701;SDS011;66868;42.708;23.404;2023-06-14T12:33:43;4.55;;;4.15;;
77701;SDS011;66868;42.708;23.404;2023-06-14T12:36:10;4.88;;;4.68;;
77701;SDS011;66868;42.708;23.404;2023-06-14T12:38:36;5.07;;;4.70;;
77701;SDS011;66868;42.708;23.404;2023-06-14T12:41:02;4.70;;;4.32;;
77701;SDS011;66868;42.708;23.404;2023-06-14T12:43:28;4.88;;;4.38;;
77701;SDS011;66868;42.708;23.404;2023-06-14T12:45:54;4.38;;;4.18;;
77701;SDS011;66868;42.708;23.404;2023-06-14T12:48:20;4.43;;;4.18;;
77701;SDS011;66868;42.708;23.404;2023-06-14T12:50:45;5.45;;;4.05;;
77701;SDS011;66868;42.708;23.404;2023-06-14T12:53:11;5.00;;;4.53;;
77701;SDS011;66868;42.708;23.404;2023-06-14T12:55:37;4.68;;;4.35;;
77701;SDS011;66868;42.708;23.404;2023-06-14T12:58:02;5.57;;;5.18;;
77701;SDS011;66868;42.708;23.404;2023-06-14T13:00:28;6.07;;;5.78;;
77701;SDS011;66868;42.708;23.404;2023-06-14T13:02:55;4.15;;;3.95;;
77701;SDS011;66868;42.708;23.404;2023-06-14T13:05:21;7.72;;;4.25;;
77701;SDS011;66868;42.708;23.404;2023-06-14T13:07:47;6.95;;;4.25;;
77701;SDS011;66868;42.708;23.404;2023-06-14T13:10:12;3.90;;;3.70;;
77701;SDS011;66868;42.708;23.404;2023-06-14T13:12:37;5.15;;;4.13;;
77701;SDS011;66868;42.708;23.404;2023-06-14T13:15:03;3.55;;;3.35;;
77701;SDS011;66868;42.708;23.404;2023-06-14T13:17:29;3.20;;;2.97;;
77701;SDS011;66868;42.708;23.404;2023-06-14T13:19:54;3.80;;;3.50;;
77701;SDS011;66868;42.708;23.404;2023-06-14T13:22:20;4.03;;;3.75;;
77701;SDS011;66868;42.708;23.404;2023-06-14T13:24:45;7.38;;;5.10;;
77701;SDS011;66868;42.708;23.404;2023-06-14T13:27:11;6.78;;;5.35;;
77701;SDS011;66868;42.708;23.404;2023-06-14T13:29:39;5.10;;;4.80;;
77701;SDS011;66868;42.708;23.404;2023-06-14T13:32:05;6.32;;;5.82;;
77701;SDS011;66868;42.708;23.404;2023-06-14T13:34:30;9.98;;;5.93;;
77701;SDS011;66868;42.708;23.404;2023-06-14T13:36:56;6.35;;;5.70;;
77701;SDS011;66868;42.708;23.404;2023-06-14T13:39:21;6.68;;;6.10;;
77701;SDS011;66868;42.708;23.404;2023-06-14T13:41:47;6.68;;;5.75;;
77701;SDS011;66868;42.708;23.404;2023-06-14T13:44:12;6.43;;;5.88;;
77701;SDS011;66868;42.708;23.404;2023-06-14T13:46:39;6.30;;;5.82;;
77701;SDS011;66868;42.708;23.404;2023-06-14T13:49:07;6.65;;;5.75;;
77701;SDS011;66868;42.708;23.404;2023-06-14T13:51:33;6.50;;;6.00;;
77701;SDS011;66868;42.708;23.404;2023-06-14T13:54:00;7.20;;;5.68;;
77701;SDS011;66868;42.708;23.404;2023-06-14T13:56:26;6.53;;;5.80;;
77701;SDS011;66868;42.708;23.404;2023-06-14T13:58:51;6.88;;;6.38;;
77701;SDS011;66868;42.708;23.404;2023-06-14T14:01:17;12.35;;;10.05;;
77701;SDS011;66868;42.708;23.404;2023-06-14T14:03:44;16.63;;;12.50;;
77701;SDS011;66868;42.708;23.404;2023-06-14T14:06:11;7.25;;;6.30;;
77701;SDS011;66868;42.708;23.404;2023-06-14T14:08:37;7.40;;;6.57;;
77701;SDS011;66868;42.708;23.404;2023-06-14T14:11:02;7.15;;;6.55;;
77701;SDS011;66868;42.708;23.404;2023-06-14T14:13:28;5.75;;;5.35;;
77701;SDS011;66868;42.708;23.404;2023-06-14T14:15:53;6.88;;;6.40;;
77701;SDS011;66868;42.708;23.404;2023-06-14T14:18:19;4.75;;;4.45;;
77701;SDS011;66868;42.708;23.404;2023-06-14T14:20:46;5.03;;;4.68;;
77701;SDS011;66868;42.708;23.404;2023-06-14T14:23:11;4.78;;;4.57;;
77701;SDS011;66868;42.708;23.404;2023-06-14T14:25:37;6.00;;;5.50;;
77701;SDS011;66868;42.708;23.404;2023-06-14T14:28:02;4.82;;;4.35;;
77701;SDS011;66868;42.708;23.404;2023-06-14T14:30:27;4.93;;;4.53;;
77701;SDS011;66868;42.708;23.404;2023-06-14T14:32:54;7.22;;;4.20;;
77701;SDS011;66868;42.708;23.404;2023-06-14T14:35:19;5.25;;;4.20;;
77701;SDS011;66868;42.708;23.404;2023-06-14T14:37:44;6.05;;;4.07;;